Time;durP1;ratioP1;P1;durP2;ratioP2;P2;SDS_P1;SDS_P2;PMS_P1;PMS_P2;Temp;Humidity;BMP_temperature;BMP_pressure;BME280_temperature;BME280_humidity;BME280_pressure;Samples;Min_cycle;Max_cycle;Signal;HPM_P1;HPM_P2
2021/01/01 00:00:16;;;;;;;129.63;63.33;;;2.90;99.90;;;3.81;93.36;99566.19;4998531;28;20039;-86
2021/01/01 00:02:43;;;;;;;375.92;108.88;;;2.90;99.90;;;3.80;93.10;99561.00;4982988;28;20034;-83
2021/01/01 00:05:15;;;;;;;594.72;171.38;;;2.90;99.90;;;3.78;93.23;99564.09;4982046;28;20026;-85
2021/01/01 00:07:45;;;;;;;294.60;95.75;;;2.90;99.90;;;3.78;93.18;99563.28;5000731;28;20086;-85
2021/01/01 00:10:13;;;;;;;195.45;73.10;;;2.90;99.90;;;3.77;93.17;99573.53;4985427;28;20394;-86
2021/01/01 00:12:39;;;;;;;126.82;56.47;;;2.90;99.90;;;3.74;93.16;99568.69;5004094;28;20038;-85
2021/01/01 00:15:07;;;;;;;98.10;47.75;;;2.80;99.90;;;3.73;93.74;99572.59;5001915;28;20089;-85
2021/01/01 00:17:33;;;;;;;93.25;47.13;;;2.80;99.90;;;3.72;93.86;99574.53;4984132;28;20034;-84
2021/01/01 00:19:59;;;;;;;81.35;41.47;;;2.80;99.90;;;3.74;93.76;99579.72;4986485;28;20073;-84
2021/01/01 00:22:25;;;;;;;74.70;40.65;;;2.80;99.90;;;3.75;93.84;99572.25;4982260;28;20089;-83
2021/01/01 00:24:51;;;;;;;70.30;37.63;;;2.90;99.90;;;3.76;93.76;99574.66;5001006;28;20085;-83
2021/01/01 00:27:17;;;;;;;61.05;33.97;;;2.80;99.90;;;3.73;93.76;99572.59;5000256;28;20437;-84
2021/01/01 00:29:43;;;;;;;63.10;35.95;;;2.80;99.90;;;3.71;93.84;99575.69;4984780;28;20031;-86
2021/01/01 00:32:09;;;;;;;59.30;33.28;;;2.80;99.90;;;3.72;94.04;99571.78;5000019;28;20030;-85
2021/01/01 00:34:35;;;;;;;55.50;31.55;;;2.80;99.90;;;3.72;93.80;99574.53;4985417;28;20038;-85
2021/01/01 00:37:02;;;;;;;65.50;35.90;;;2.80;99.90;;;3.76;93.47;99576.63;4984349;28;20034;-84
2021/01/01 00:39:29;;;;;;;62.50;33.55;;;2.80;99.90;;;3.77;93.05;99567.19;4985211;28;20065;-84
2021/01/01 00:41:54;;;;;;;53.78;30.98;;;2.80;99.90;;;3.69;93.64;99566.94;4982828;28;20030;-86
2021/01/01 00:44:21;;;;;;;59.78;34.17;;;2.80;99.90;;;3.69;93.21;99572.44;4983133;28;20030;-86
2021/01/01 00:46:47;;;;;;;58.10;32.30;;;2.80;99.90;;;3.67;93.54;99572.00;4968265;28;20031;-87
2021/01/01 00:49:12;;;;;;;56.80;32.70;;;2.80;99.90;;;3.65;93.69;99571.53;4963859;28;20031;-85
2021/01/01 00:51:38;;;;;;;63.50;35.65;;;2.80;99.90;;;3.70;93.67;99568.56;4964864;28;20019;-86
2021/01/01 00:54:04;;;;;;;61.28;34.70;;;2.80;99.90;;;3.67;93.53;99569.22;4965405;28;20077;-85
2021/01/01 00:56:30;;;;;;;67.22;36.85;;;2.70;99.90;;;3.67;93.51;99566.47;4965484;28;20057;-84
2021/01/01 00:58:57;;;;;;;73.03;38.22;;;2.80;99.90;;;3.68;93.73;99581.91;4983114;28;20042;-84
2021/01/01 01:01:27;;;;;;;66.95;35.85;;;2.80;99.90;;;3.61;94.02;99581.63;4966564;28;20086;-85
2021/01/01 01:03:56;;;;;;;81.32;41.20;;;2.70;99.90;;;3.61;93.90;99578.88;4966341;28;20033;-84
2021/01/01 01:06:25;;;;;;;141.60;68.90;;;2.80;99.90;;;3.60;94.39;99584.72;4967246;28;20048;-85
2021/01/01 01:08:54;;;;;;;105.47;51.83;;;2.70;99.90;;;3.69;93.85;99582.72;4967179;28;20494;-85
2021/01/01 01:11:28;;;;;;;100.13;55.85;;;2.80;99.90;;;3.65;94.10;99588.09;4967216;28;20035;-85
2021/01/01 01:13:57;;;;;;;87.65;47.22;;;2.70;99.90;;;3.62;94.00;99586.00;4988503;28;20561;-85
2021/01/01 01:16:29;;;;;;;107.40;56.53;;;2.80;99.90;;;3.63;94.12;99589.56;4990525;28;20038;-84
2021/01/01 01:18:57;;;;;;;97.25;51.03;;;2.70;99.90;;;3.61;93.88;99597.38;4991538;28;20038;-86
2021/01/01 01:21:24;;;;;;;105.75;56.22;;;2.70;99.90;;;3.58;94.32;99598.06;4990353;28;20042;-84
2021/01/01 01:23:53;;;;;;;103.40;54.92;;;2.70;99.90;;;3.59;94.64;99603.25;4992826;28;20037;-86
2021/01/01 01:26:19;;;;;;;113.32;58.08;;;2.70;99.90;;;3.63;94.49;99600.59;4984349;28;20026;-86
2021/01/01 01:28:46;;;;;;;126.65;67.68;;;2.70;99.90;;;3.67;94.11;99607.88;4988445;28;20054;-84
2021/01/01 01:31:12;;;;;;;114.20;59.97;;;2.70;99.90;;;3.68;94.31;99611.47;4989636;28;20026;-85
2021/01/01 01:33:38;;;;;;;121.03;64.68;;;2.80;99.90;;;3.66;94.30;99613.75;4993279;28;20019;-83
2021/01/01 01:36:05;;;;;;;130.10;68.70;;;2.80;99.90;;;3.68;94.29;99608.69;4987834;28;20057;-84
2021/01/01 01:38:31;;;;;;;122.97;64.07;;;2.80;99.90;;;3.71;94.12;99611.59;4999992;28;20121;-83
2021/01/01 01:40:57;;;;;;;111.82;57.58;;;2.80;99.90;;;3.75;94.25;99620.00;4984929;28;20065;-84
2021/01/01 01:43:28;;;;;;;109.43;57.17;;;2.80;99.90;;;3.73;94.18;99620.34;5001524;28;20586;-88
2021/01/01 01:45:58;;;;;;;106.72;53.72;;;2.80;99.90;;;3.73;94.01;99620.34;4990256;28;20035;-84
2021/01/01 01:48:45;;;;;;;98.95;51.00;;;2.80;99.90;;;3.71;94.04;99628.16;5007151;28;20033;-84
2021/01/01 01:51:12;;;;;;;90.10;46.85;;;2.80;99.90;;;3.68;94.13;99620.56;4981818;28;20037;-84
2021/01/01 01:53:48;;;;;;;97.75;49.58;;;2.80;99.90;;;3.66;94.52;99619.28;4982311;28;20034;-84
2021/01/01 01:56:15;;;;;;;87.45;43.60;;;2.80;99.90;;;3.66;94.59;99620.06;4999867;28;20034;-85
2021/01/01 01:58:42;;;;;;;92.25;45.50;;;2.80;99.90;;;3.63;94.23;99617.97;4981847;28;20038;-85
2021/01/01 02:01:09;;;;;;;84.80;41.80;;;2.70;99.90;;;3.59;94.44;99621.78;4983168;28;20490;-85
2021/01/01 02:03:35;;;;;;;85.50;44.00;;;2.70;99.90;;;3.59;94.40;99621.78;4984519;28;20033;-86
2021/01/01 02:06:02;;;;;;;93.20;44.92;;;2.70;99.90;;;3.52;94.28;99627.81;4984082;28;20026;-84
2021/01/01 02:08:29;;;;;;;85.93;43.17;;;2.60;99.90;;;3.53;94.20;99626.66;4985047;28;20492;-85
2021/01/01 02:10:59;;;;;;;85.82;44.75;;;2.60;99.90;;;3.44;94.33;99623.16;4984627;28;20033;-87
2021/01/01 02:13:27;;;;;;;81.53;41.45;;;2.60;99.90;;;3.39;94.61;99633.59;5000669;28;20489;-85
2021/01/01 02:15:53;;;;;;;76.47;40.55;;;2.60;99.90;;;3.33;94.24;99634.94;4984000;28;20473;-83
2021/01/01 02:18:42;;;;;;;96.72;46.17;;;2.50;99.90;;;3.26;94.81;99638.22;4982304;28;20237;-85
2021/01/01 02:21:16;;;;;;;87.20;41.90;;;2.40;99.90;;;3.20;94.73;99631.28;4979281;28;20034;-85
2021/01/01 02:23:47;;;;;;;98.50;49.67;;;2.40;99.90;;;3.23;95.20;99635.31;4978889;28;20050;-85
2021/01/01 02:26:15;;;;;;;92.43;45.97;;;2.40;99.90;;;3.22;94.79;99637.28;4974878;28;20027;-85
2021/01/01 02:28:42;;;;;;;89.03;44.03;;;2.40;99.90;;;3.20;95.04;99636.81;4978361;28;20030;-85
2021/01/01 02:31:09;;;;;;;88.82;45.35;;;2.40;99.90;;;3.18;94.82;99641.84;4996407;28;20125;-85
2021/01/01 02:33:35;;;;;;;90.75;45.17;;;2.40;99.90;;;3.14;95.29;99638.16;4980817;28;20061;-86
2021/01/01 02:36:01;;;;;;;102.80;47.25;;;2.30;99.90;;;3.11;95.41;99642.34;4981865;28;20038;-84
2021/01/01 02:38:27;;;;;;;86.28;44.08;;;2.30;99.90;;;3.11;95.57;99634.06;4980318;28;20038;-83
2021/01/01 02:40:53;;;;;;;85.07;42.70;;;2.30;99.90;;;3.12;95.21;99640.41;4979750;28;20026;-85
2021/01/01 02:43:20;;;;;;;101.32;48.38;;;2.30;99.90;;;3.14;95.36;99640.91;4995340;28;20026;-84
2021/01/01 02:45:48;;;;;;;99.10;45.80;;;2.30;99.90;;;3.15;95.50;99640.56;4980175;28;20294;-85
2021/01/01 02:48:18;;;;;;;98.63;43.85;;;2.30;99.90;;;3.14;95.46;99643.66;4979596;28;20031;-84
2021/01/01 02:50:45;;;;;;;97.47;45.15;;;2.30;99.90;;;3.16;95.74;99646.88;4979155;28;20030;-85
2021/01/01 02:53:12;;;;;;;88.88;43.40;;;2.30;99.90;;;3.14;95.37;99649.19;4979261;28;20081;-84
2021/01/01 02:55:39;;;;;;;95.18;47.58;;;2.30;99.90;;;3.12;95.37;99646.75;4978651;28;20030;-83
2021/01/01 02:58:07;;;;;;;102.32;45.78;;;2.30;99.90;;;3.12;95.49;99649.50;4979163;28;20030;-85
2021/01/01 03:00:38;;;;;;;82.88;41.17;;;2.30;99.90;;;3.11;95.50;99649.84;4997080;28;20034;-84
2021/01/01 03:03:05;;;;;;;82.03;41.08;;;2.30;99.90;;;3.10;95.98;99651.78;4978789;28;20034;-84
2021/01/01 03:05:32;;;;;;;104.55;49.28;;;2.30;99.90;;;3.12;95.79;99645.94;4979644;28;20077;-85
2021/01/01 03:07:57;;;;;;;92.20;46.03;;;2.30;99.90;;;3.13;95.71;99645.59;4979906;28;20022;-85
2021/01/01 03:10:23;;;;;;;89.28;44.03;;;2.30;99.90;;;3.13;95.96;99642.84;4996149;28;20050;-85
2021/01/01 03:12:49;;;;;;;93.38;43.40;;;2.30;99.90;;;3.16;95.72;99653.22;4995277;28;20026;-85
2021/01/01 03:15:16;;;;;;;87.00;43.38;;;2.30;99.90;;;3.16;95.92;99644.94;4979721;28;20031;-84
2021/01/01 03:17:43;;;;;;;80.78;39.00;;;2.30;99.90;;;3.15;95.68;99653.53;4979294;28;20034;-86
2021/01/01 03:20:10;;;;;;;83.15;39.35;;;2.30;99.90;;;3.14;95.98;99658.28;4980357;28;20486;-85
2021/01/01 03:22:36;;;;;;;84.57;40.83;;;2.30;99.90;;;3.17;95.76;99656.78;4983505;28;20026;-85
2021/01/01 03:25:07;;;;;;;86.20;40.50;;;2.30;99.90;;;3.17;95.92;99654.84;4985616;28;20509;-84
2021/01/01 03:27:33;;;;;;;96.43;43.45;;;2.40;99.90;;;3.20;95.79;99653.38;4984831;28;20077;-85
2021/01/01 03:29:59;;;;;;;86.93;39.28;;;2.40;99.90;;;3.22;95.54;99653.00;4985750;28;20026;-85
2021/01/01 03:32:25;;;;;;;86.53;40.80;;;2.30;99.90;;;3.19;95.86;99657.25;4985525;28;20034;-85
2021/01/01 03:34:54;;;;;;;84.90;39.75;;;2.30;99.90;;;3.16;95.28;99660.69;4985338;28;20553;-85
2021/01/01 03:37:20;;;;;;;85.68;39.92;;;2.30;99.90;;;3.14;95.53;99662.97;4986350;28;20085;-85
2021/01/01 03:39:58;;;;;;;;;;;;;;;;;;;;;
2021/01/01 03:42:25;;;;;;;85.82;38.05;;;2.30;99.90;;;3.16;95.49;99664.25;5004136;28;20451;-85
2021/01/01 03:44:51;;;;;;;78.70;39.05;;;2.30;99.90;;;3.18;95.69;99663.91;4986004;28;20023;-86
2021/01/01 03:47:17;;;;;;;77.32;38.15;;;2.30;99.90;;;3.17;95.54;99648.50;4985839;28;20482;-86
2021/01/01 03:49:42;;;;;;;77.57;37.08;;;2.30;99.90;;;3.17;95.39;99659.56;4986447;28;20065;-84
2021/01/01 03:52:08;;;;;;;91.45;42.05;;;2.30;99.90;;;3.17;95.49;99665.88;4986389;28;20049;-84
2021/01/01 03:54:34;;;;;;;87.35;40.10;;;2.40;99.90;;;3.18;95.55;99672.19;5002825;28;20026;-84
2021/01/01 03:57:01;;;;;;;83.07;39.83;;;2.30;99.90;;;3.13;95.32;99664.91;4978661;28;20026;-85
2021/01/01 03:59:27;;;;;;;81.70;37.50;;;2.30;99.90;;;3.13;95.38;99667.69;4969635;28;20031;-85
2021/01/01 04:01:52;;;;;;;79.78;38.30;;;2.30;99.90;;;3.12;95.82;99670.75;4967860;28;20553;-86
2021/01/01 04:04:18;;;;;;;90.68;42.60;;;2.30;99.90;;;3.14;95.81;99669.31;4970700;28;20035;-86
2021/01/01 04:06:44;;;;;;;79.20;36.58;;;2.30;99.90;;;3.15;95.46;99679.19;4971991;28;20517;-86
2021/01/01 04:09:10;;;;;;;96.13;41.80;;;2.30;99.90;;;3.15;95.70;99673.66;4973691;28;20094;-87
2021/01/01 04:11:37;;;;;;;84.15;37.03;;;2.30;99.90;;;3.19;95.77;99665.53;4973602;28;20027;-87
2021/01/01 04:14:04;;;;;;;75.15;35.95;;;2.40;99.90;;;3.19;95.58;99671.06;4974877;28;20539;-86
2021/01/01 04:16:31;;;;;;;92.95;39.97;;;2.30;99.90;;;3.19;95.56;99682.09;4995890;28;20098;-85
2021/01/01 04:18:58;;;;;;;88.60;40.40;;;2.40;99.90;;;3.16;95.66;99674.47;4971767;28;20403;-87
2021/01/01 04:21:24;;;;;;;76.75;35.33;;;2.30;99.90;;;3.15;95.57;99675.59;4971874;28;20038;-86
2021/01/01 04:23:50;;;;;;;75.75;35.20;;;2.30;99.90;;;3.12;95.52;99679.03;4989362;28;20557;-85
2021/01/01 04:26:16;;;;;;;73.78;34.35;;;2.30;99.90;;;3.12;95.67;99677.09;4972562;28;20034;-86
2021/01/01 04:28:42;;;;;;;73.97;34.83;;;2.30;99.90;;;3.10;95.55;99679.38;4973285;28;20059;-85
2021/01/01 04:31:08;;;;;;;75.22;35.53;;;2.30;99.90;;;3.11;95.50;99680.97;4975176;28;20035;-87
2021/01/01 04:33:40;;;;;;;73.22;34.15;;;2.20;99.90;;;3.12;95.49;99679.03;4974455;28;20031;-85
2021/01/01 04:36:06;;;;;;;70.55;33.92;;;2.30;99.90;;;3.09;95.57;99675.00;4975936;28;20097;-85
2021/01/01 04:38:32;;;;;;;65.82;31.70;;;2.30;99.90;;;3.09;95.59;99683.28;4976349;28;20041;-86
2021/01/01 04:40:58;;;;;;;72.28;36.40;;;2.30;99.90;;;3.08;95.65;99675.34;4982165;28;20030;-83
2021/01/01 04:43:24;;;;;;;77.45;35.17;;;2.30;99.90;;;3.13;95.80;99675.16;4982583;28;20062;-84
2021/01/01 04:45:53;;;;;;;68.25;32.58;;;2.30;99.90;;;3.14;95.82;99685.03;4996059;28;20022;-85
2021/01/01 04:48:21;;;;;;;72.95;36.08;;;2.30;99.90;;;3.14;95.71;99685.03;4971867;28;20065;-85
2021/01/01 04:50:47;;;;;;;70.45;33.22;;;2.30;99.90;;;3.16;95.42;99685.50;4973800;28;20546;-84
2021/01/01 04:53:21;;;;;;;73.15;34.05;;;2.30;99.90;;;3.16;95.47;99685.50;4974553;28;20035;-86
2021/01/01 04:55:50;;;;;;;72.18;33.55;;;2.30;99.90;;;3.16;95.48;99689.09;4989397;28;20060;-87
2021/01/01 04:58:19;;;;;;;70.32;33.13;;;2.30;99.90;;;3.17;95.75;99687.94;4967113;28;20046;-84
2021/01/01 05:00:45;;;;;;;70.28;33.47;;;2.30;99.90;;;3.19;95.58;99682.09;4981128;28;20039;-85
2021/01/01 05:03:11;;;;;;;75.80;34.47;;;2.40;99.90;;;3.19;95.43;99693.94;4983987;28;20035;-84
2021/01/01 05:05:45;;;;;;;64.95;32.70;;;2.30;99.90;;;3.17;95.66;99685.19;4965892;28;20110;-84
2021/01/01 05:08:11;;;;;;;72.35;33.42;;;2.30;99.90;;;3.16;95.52;99688.28;4964067;28;20037;-84
2021/01/01 05:10:37;;;;;;;66.25;30.48;;;2.30;99.90;;;3.13;95.21;99687.00;4962043;28;20039;-85
2021/01/01 05:13:17;;;;;;;70.65;34.95;;;2.30;99.90;;;3.12;95.68;99695.59;4961374;28;20390;-84
2021/01/01 05:15:47;;;;;;;68.10;34.70;;;2.30;99.90;;;3.10;95.44;99692.34;4980097;28;20042;-84
2021/01/01 05:18:29;;;;;;;65.13;29.83;;;2.30;99.90;;;3.11;95.35;99699.50;4983580;28;20031;-85
2021/01/01 05:21:02;;;;;;;69.35;32.92;;;2.30;99.90;;;3.10;95.11;99703.41;4980848;28;20184;-84
2021/01/01 05:23:29;;;;;;;65.72;30.80;;;2.30;99.90;;;3.09;95.33;99701.78;5060151;22;20072;-80
2021/01/01 05:26:11;;;;;;;65.90;31.38;;;2.30;99.90;;;3.11;95.49;99707.78;4999504;28;20040;-82
2021/01/01 05:28:48;;;;;;;67.93;32.42;;;2.30;99.90;;;3.13;94.91;99709.06;5016687;28;20115;-82
2021/01/01 05:31:18;;;;;;;66.03;30.58;;;2.30;99.90;;;3.14;95.43;99701.59;5014182;28;20112;-83
2021/01/01 05:34:11;;;;;;;71.45;33.67;;;2.30;99.90;;;3.12;94.90;99712.13;4993686;28;20474;-83
2021/01/01 05:36:47;;;;;;;71.82;33.10;;;2.30;99.90;;;3.09;95.35;99712.81;4995919;28;20037;-81
2021/01/01 05:39:14;;;;;;;72.32;33.42;;;2.30;99.90;;;3.06;94.76;99721.75;4990804;28;20119;-81
2021/01/01 05:41:50;;;;;;;63.72;31.70;;;2.30;99.90;;;3.08;94.98;99717.50;4999776;28;20034;-80
2021/01/01 05:44:30;;;;;;;70.93;34.17;;;2.20;99.90;;;3.10;94.79;99715.25;5000526;28;20033;-81
2021/01/01 05:47:09;;;;;;;75.97;33.47;;;2.30;99.90;;;3.14;94.72;99713.44;5015680;28;20038;-84
2021/01/01 05:49:41;;;;;;;63.15;32.47;;;2.30;99.90;;;3.14;94.78;99718.16;4981742;28;20074;-82
2021/01/01 05:52:25;;;;;;;74.40;34.83;;;2.30;99.90;;;3.15;95.12;99717.81;4978505;28;20062;-81
2021/01/01 05:55:05;;;;;;;71.25;33.50;;;2.30;99.90;;;3.15;95.09;99720.56;4977668;28;20031;-81
2021/01/01 05:57:38;;;;;;;73.25;33.40;;;2.30;99.90;;;3.14;95.07;99731.94;4994601;28;20027;-83
2021/01/01 06:00:10;;;;;;;62.90;33.15;;;2.30;99.90;;;3.09;94.94;99726.59;4977415;28;20034;-84
2021/01/01 06:02:43;;;;;;;60.78;31.35;;;2.30;99.90;;;3.06;94.65;99730.84;4994163;28;20030;-83
2021/01/01 06:05:13;;;;;;;68.50;33.45;;;2.20;99.90;;;3.03;94.71;99725.97;4994270;28;20031;-83
2021/01/01 06:07:42;;;;;;;72.78;34.55;;;2.20;99.90;;;3.04;95.06;99738.63;4976887;28;20026;-81
2021/01/01 06:10:11;;;;;;;67.20;33.60;;;2.20;99.90;;;3.03;94.86;99744.47;4994257;28;20537;-83
2021/01/01 06:12:39;;;;;;;72.32;33.67;;;2.20;99.90;;;3.01;94.87;99738.50;4993727;28;20054;-79
2021/01/01 06:15:09;;;;;;;68.43;33.75;;;2.20;99.90;;;2.97;94.50;99741.09;4976506;28;20495;-82
2021/01/01 06:17:48;;;;;;;73.53;36.25;;;2.10;99.90;;;2.93;94.82;99748.41;4976767;28;20125;-82
2021/01/01 06:20:22;;;;;;;72.53;34.78;;;2.10;99.90;;;2.95;94.49;99756.34;4976550;28;20027;-82
2021/01/01 06:23:06;;;;;;;77.57;34.78;;;2.10;99.90;;;2.91;95.04;99756.22;4993986;28;20026;-79
2021/01/01 06:25:35;;;;;;;71.35;33.25;;;2.10;99.90;;;2.90;94.85;99757.34;4976908;28;20026;-81
2021/01/01 06:28:01;;;;;;;74.35;36.63;;;2.20;99.90;;;2.90;94.56;99760.09;4994366;28;20429;-81
2021/01/01 06:30:29;;;;;;;76.32;36.28;;;2.10;99.90;;;2.90;94.67;99764.78;4994121;28;20061;-82
2021/01/01 06:32:58;;;;;;;73.93;34.80;;;2.10;99.90;;;2.88;94.83;99767.09;4993957;28;20038;-82
2021/01/01 06:35:25;;;;;;;64.55;32.15;;;2.10;99.90;;;2.88;94.76;99770.66;4994404;28;20441;-81
2021/01/01 06:37:54;;;;;;;66.88;34.50;;;2.10;99.90;;;2.87;94.54;99774.53;4976926;28;20042;-83
2021/01/01 06:40:20;;;;;;;73.78;35.08;;;2.10;99.90;;;2.84;94.91;99775.19;4975672;28;20037;-81
2021/01/01 06:42:57;;;;;;;80.60;35.42;;;2.10;99.90;;;2.87;94.65;99779.25;4993088;28;20026;-81
2021/01/01 06:45:45;;;;;;;76.53;35.25;;;2.10;99.90;;;2.89;94.60;99780.53;4976209;28;20151;-82
2021/01/01 06:48:21;;;;;;;76.47;35.45;;;2.10;99.90;;;2.89;95.08;99786.03;4976394;28;20032;-81
2021/01/01 06:50:53;;;;;;;75.80;34.92;;;2.10;99.90;;;2.92;94.83;99784.59;4975933;28;20058;-83
2021/01/01 06:53:30;;;;;;;70.30;33.33;;;2.10;99.90;;;2.91;94.91;99782.97;4975734;28;20034;-83
2021/01/01 06:56:12;;;;;;;75.10;35.72;;;2.10;99.90;;;2.86;95.05;99788.66;4977402;28;20026;-81
2021/01/01 06:58:39;;;;;;;75.38;35.40;;;2.10;99.90;;;2.83;94.86;99792.88;4979998;28;20441;-82
2021/01/01 07:01:16;;;;;;;85.05;38.75;;;2.00;99.90;;;2.88;94.87;99794.66;4979881;28;20030;-80
2021/01/01 07:03:43;;;;;;;81.93;36.95;;;2.10;99.90;;;2.89;94.83;99794.31;4979616;28;20501;-83
2021/01/01 07:06:08;;;;;;;85.60;39.33;;;2.10;99.90;;;2.86;94.99;99803.25;4979765;28;20680;-82
2021/01/01 07:08:41;;;;;;;80.65;37.20;;;2.10;99.90;;;2.90;94.55;99803.41;4979297;28;20064;-81
2021/01/01 07:11:10;;;;;;;72.30;36.40;;;2.10;99.90;;;2.87;95.16;99802.13;4996854;28;20034;-81
2021/01/01 07:13:52;;;;;;;81.55;39.45;;;2.10;99.90;;;2.90;94.91;99809.75;4996567;28;20504;-81
2021/01/01 07:16:32;;;;;;;82.50;38.88;;;2.10;99.90;;;2.96;95.02;99807.59;4979325;28;20053;-81
2021/01/01 07:18:59;;;;;;;79.65;36.95;;;2.10;99.90;;;2.97;94.96;99799.00;4979454;28;20238;-82
2021/01/01 07:21:24;;;;;;;78.63;36.38;;;2.10;99.90;;;2.97;94.53;99809.25;4979662;28;20030;-81
2021/01/01 07:23:50;;;;;;;77.25;36.90;;;2.10;99.90;;;2.98;94.50;99813.63;4979402;28;20177;-82
2021/01/01 07:26:17;;;;;;;82.63;39.78;;;2.10;99.90;;;2.92;94.49;99812.97;4979931;28;20585;-81
2021/01/01 07:28:48;;;;;;;74.88;36.83;;;2.10;99.90;;;2.87;94.82;99804.88;4980152;28;20023;-82
2021/01/01 07:31:18;;;;;;;74.95;35.50;;;2.10;99.90;;;2.82;95.02;99813.34;4979851;28;20041;-82
2021/01/01 07:33:46;;;;;;;80.07;38.08;;;2.10;99.90;;;2.84;95.02;99808.28;4996970;28;20026;-81
2021/01/01 07:36:14;;;;;;;80.95;38.42;;;2.10;99.90;;;2.86;94.87;99816.25;4997145;28;20054;-82
2021/01/01 07:38:47;;;;;;;79.78;36.65;;;2.10;99.90;;;2.88;95.12;99822.25;4979833;28;20117;-81
2021/01/01 07:41:18;;;;;;;82.95;38.00;;;2.10;99.90;;;2.90;94.80;99818.00;4979678;28;20153;-83
2021/01/01 07:43:52;;;;;;;79.72;38.05;;;2.10;99.90;;;2.96;94.71;99821.41;4981205;28;20026;-82
2021/01/01 07:46:18;;;;;;;77.15;36.72;;;2.10;99.90;;;2.99;94.25;99829.00;4982118;28;20478;-82
2021/01/01 07:48:54;;;;;;;77.70;38.03;;;2.10;99.90;;;2.94;94.10;99827.25;4998461;28;20398;-82
2021/01/01 07:51:21;;;;;;;82.20;38.55;;;2.10;99.90;;;2.94;94.25;99830.03;4985622;28;20026;-81
2021/01/01 07:53:58;;;;;;;82.40;38.55;;;2.20;99.90;;;2.93;94.44;99830.31;4986030;28;20038;-82
2021/01/01 07:56:24;;;;;;;78.78;38.15;;;2.20;99.90;;;2.90;94.54;99839.25;4981558;28;20026;-83
2021/01/01 07:58:56;;;;;;;75.80;37.25;;;2.10;99.90;;;2.86;94.62;99835.56;4996460;28;20030;-82
2021/01/01 08:01:35;;;;;;;79.13;39.05;;;2.10;99.90;;;2.85;94.35;99836.69;4985939;28;20031;-80
2021/01/01 08:04:13;;;;;;;84.13;39.38;;;2.20;99.90;;;2.86;94.32;99838.31;4985964;28;20058;-81
2021/01/01 08:06:57;;;;;;;80.22;39.30;;;2.10;99.90;;;2.88;94.65;99836.03;4984852;28;20098;-82
2021/01/01 08:09:24;;;;;;;88.95;40.60;;;2.10;99.90;;;2.87;94.61;99835.22;4986092;28;20117;-82
2021/01/01 08:12:04;;;;;;;91.10;42.70;;;2.20;99.90;;;2.88;94.83;99834.09;4986767;28;20121;-82
2021/01/01 08:14:33;;;;;;;91.68;40.88;;;2.10;99.90;;;2.86;95.24;99841.06;4985329;28;20457;-83
2021/01/01 08:17:38;;;;;;;84.03;41.00;;;2.10;99.90;;;2.84;95.58;99844.13;4987996;28;20023;-82
2021/01/01 08:20:19;;;;;;;91.18;40.08;;;2.30;99.90;;;2.91;95.04;99847.22;4987286;28;20030;-83
2021/01/01 08:22:57;;;;;;;93.18;43.42;;;2.20;99.90;;;3.00;94.71;99855.47;4988550;28;20035;-83
2021/01/01 08:25:25;;;;;;;85.63;40.00;;;2.20;99.90;;;2.99;95.10;99851.09;5005360;28;20097;-84
2021/01/01 08:27:52;;;;;;;85.38;40.50;;;2.30;99.90;;;2.95;94.78;99847.38;4984978;28;20031;-82
2021/01/01 08:30:22;;;;;;;84.65;40.50;;;2.30;99.90;;;3.05;94.96;99850.59;4985758;28;20037;-82
2021/01/01 08:32:49;;;;;;;85.78;41.17;;;2.30;99.90;;;2.99;94.86;99854.66;4988340;28;20073;-82
2021/01/01 08:35:24;;;;;;;88.30;39.17;;;2.30;99.90;;;3.02;95.13;99855.94;4987961;28;20122;-82
2021/01/01 08:38:18;;;;;;;65.55;29.38;;;2.30;99.90;;;3.12;94.67;99863.88;4986465;28;20034;-82
2021/01/01 08:40:58;;;;;;;84.82;41.45;;;2.40;99.90;;;3.20;94.64;99860.31;4984353;28;20125;-85
2021/01/01 08:43:29;;;;;;;87.95;40.63;;;2.40;99.90;;;3.26;94.46;99866.47;4983524;28;20030;-85
2021/01/01 08:45:59;;;;;;;89.40;40.97;;;2.40;99.90;;;3.11;94.35;99873.31;4983037;28;20027;-83
2021/01/01 08:48:33;;;;;;;81.20;38.67;;;2.40;99.90;;;3.28;94.09;99872.44;4984038;28;20031;-83
2021/01/01 08:50:59;;;;;;;74.15;37.03;;;2.50;99.90;;;3.37;94.28;99873.25;4968346;28;20027;-84
2021/01/01 08:53:43;;;;;;;86.43;40.45;;;2.60;99.90;;;3.35;93.92;99872.75;4989579;28;20058;-83
2021/01/01 08:56:30;;;;;;;83.63;37.30;;;2.60;99.90;;;3.46;93.43;99874.03;4967233;28;20577;-83
2021/01/01 08:59:11;;;;;;;81.15;37.35;;;2.60;99.90;;;3.54;93.53;99879.53;4987090;28;20033;-84
2021/01/01 09:01:38;;;;;;;76.85;37.33;;;2.70;99.90;;;3.45;93.32;99883.44;4986954;28;20085;-84
2021/01/01 09:04:05;;;;;;;76.32;36.50;;;2.70;99.90;;;3.48;93.42;99883.59;4987121;28;20030;-81
2021/01/01 09:06:32;;;;;;;72.53;37.65;;;2.70;99.90;;;3.51;93.12;99885.72;4988737;28;20125;-85
2021/01/01 09:09:09;;;;;;;73.72;35.75;;;2.80;99.90;;;3.67;92.38;99885.97;4987983;28;20030;-85
2021/01/01 09:11:36;;;;;;;73.30;36.15;;;2.80;99.90;;;3.66;92.58;99892.66;5006686;28;20027;-84
2021/01/01 09:14:05;;;;;;;78.95;35.53;;;2.80;99.90;;;3.72;92.48;99894.88;4989283;28;20034;-82
2021/01/01 09:16:39;;;;;;;76.28;34.90;;;2.90;99.90;;;3.78;91.89;99890.00;5006594;28;20030;-84
2021/01/01 09:19:18;;;;;;;76.25;37.90;;;3.00;99.90;;;3.83;91.94;99900.03;4988197;28;20030;-84
2021/01/01 09:22:03;;;;;;;77.93;37.30;;;3.00;99.90;;;3.91;91.63;99905.53;4986942;28;20034;-80
2021/01/01 09:24:40;;;;;;;77.70;36.75;;;3.00;99.90;;;3.95;91.37;99902.94;4986554;28;20108;-82
2021/01/01 09:27:48;;;;;;;76.40;36.17;;;3.10;99.90;;;3.81;91.94;99905.91;4986278;28;20029;-82
2021/01/01 09:30:52;;;;;;;77.88;36.30;;;3.10;99.90;;;3.94;91.65;99907.66;4968580;28;20062;-83
2021/01/01 09:33:23;;;;;;;84.68;37.50;;;3.10;99.90;;;4.02;91.39;99906.78;4984229;28;20043;-85
2021/01/01 09:35:56;;;;;;;88.90;40.03;;;3.20;99.90;;;3.92;91.88;99918.19;4990534;28;20042;-82
2021/01/01 09:38:33;;;;;;;79.40;37.10;;;3.20;99.90;;;4.07;91.44;99905.78;4991602;28;20030;-84
2021/01/01 09:41:01;;;;;;;86.00;39.72;;;3.20;99.90;;;3.96;91.35;99901.78;5007728;28;20030;-82
2021/01/01 09:43:30;;;;;;;83.95;37.75;;;3.20;99.90;;;4.03;90.85;99904.84;4988897;28;20022;-83
2021/01/01 09:46:10;;;;;;;85.45;37.67;;;3.20;99.90;;;4.03;91.00;99907.59;4990986;28;20033;-85
2021/01/01 09:48:43;;;;;;;83.13;37.88;;;3.20;99.90;;;4.03;91.32;99907.59;5008110;28;20050;-83
2021/01/01 09:51:17;;;;;;;80.35;36.88;;;3.20;99.90;;;4.10;90.45;99910.66;4989493;28;20093;-82
2021/01/01 09:53:50;;;;;;;90.70;38.90;;;3.30;99.90;;;4.10;90.70;99919.75;4987830;28;20042;-81
2021/01/01 09:56:19;;;;;;;84.93;38.17;;;3.30;99.90;;;4.12;90.65;99922.19;4988511;28;20026;-84
2021/01/01 09:58:48;;;;;;;84.47;40.33;;;3.30;99.90;;;4.15;90.23;99922.31;5006522;28;20030;-79
2021/01/01 10:01:22;;;;;;;82.80;38.03;;;3.30;99.90;;;4.18;90.56;99920.84;5005978;28;20030;-83
2021/01/01 10:03:49;;;;;;;81.97;36.78;;;3.30;99.90;;;4.22;90.47;99928.16;4989070;28;20033;-80
2021/01/01 10:06:16;;;;;;;76.57;35.80;;;3.30;99.90;;;4.22;90.37;99924.56;4986994;28;20034;-81
2021/01/01 10:08:45;;;;;;;87.65;39.83;;;3.30;99.90;;;4.08;90.74;99922.03;5006562;28;20049;-80
2021/01/01 10:11:14;;;;;;;93.63;39.38;;;3.30;99.90;;;3.94;91.38;99923.41;4989972;28;20117;-82
2021/01/01 10:13:41;;;;;;;90.15;38.85;;;3.30;99.90;;;3.97;91.08;99928.28;4989039;28;20037;-82
2021/01/01 10:16:26;;;;;;;92.10;41.70;;;3.20;99.90;;;3.96;91.33;99929.41;5007312;28;20026;-82
2021/01/01 10:18:52;;;;;;;99.93;41.65;;;3.20;99.90;;;4.06;91.02;99926.28;4990130;28;20034;-81
2021/01/01 10:21:20;;;;;;;89.78;39.33;;;3.20;99.90;;;4.12;90.70;99938.75;4983936;28;20098;-81
2021/01/01 10:23:46;;;;;;;89.22;41.55;;;3.20;99.90;;;4.11;90.49;99926.09;4983910;28;20125;-82
2021/01/01 10:26:12;;;;;;;94.28;41.63;;;3.20;99.90;;;4.11;90.55;99939.91;5001551;28;20042;-83
2021/01/01 10:28:37;;;;;;;95.95;44.13;;;3.20;99.90;;;4.09;90.91;99937.47;4984291;28;20402;-83
2021/01/01 10:31:06;;;;;;;96.90;41.83;;;3.30;99.90;;;4.11;91.03;99945.44;4982309;28;20026;-84
2021/01/01 10:33:33;;;;;;;102.32;42.35;;;3.20;99.90;;;4.07;90.88;99933.44;4979886;28;20034;-78